Time;durP1;ratioP1;P1;durP2;ratioP2;P2;SDS_P1;SDS_P2;PMS_P1;PMS_P2;Temp;Humidity;BMP_temperature;BMP_pressure;BME280_temperature;BME280_humidity;BME280_pressure;Samples;Min_cycle;Max_cycle;Signal;HPM_P1;HPM_P2
2021/09/21 00:02:05;;;;;;;7.13;3.50;;;;;;;16.31;86.85;98958.22;6255849;23;20016;-94
2021/09/21 00:04:31;;;;;;;6.85;3.28;;;;;;;16.51;85.92;98986.81;6256845;23;20017;-96
2021/09/21 00:06:57;;;;;;;6.88;3.50;;;;;;;16.49;85.49;98965.41;6255663;23;20016;-94
2021/09/21 00:09:24;;;;;;;9.23;4.18;;;;;;;16.50;85.89;98983.22;6255476;23;20403;-94
2021/09/21 00:11:51;;;;;;;9.93;3.30;;;;;;;16.39;86.21;98969.44;6259691;23;20016;-94
2021/09/21 00:14:19;;;;;;;8.65;3.80;;;;;;;16.43;85.73;98958.50;6253508;23;20016;-94
2021/09/21 00:16:46;;;;;;;8.60;3.60;;;;;;;16.49;85.74;98964.53;6255962;23;20028;-94
2021/09/21 00:19:12;;;;;;;8.32;3.50;;;;;;;16.42;85.90;98961.28;6256061;23;20505;-94
2021/09/21 00:21:38;;;;;;;8.43;3.83;;;;;;;16.47;86.13;98983.38;6254022;23;20023;-94
2021/09/21 00:24:04;;;;;;;8.65;4.00;;;;;;;16.30;86.48;98972.59;6254949;23;20012;-94
2021/09/21 00:26:30;;;;;;;6.80;3.70;;;;;;;16.30;86.73;98972.59;6250901;22;20020;-94
2021/09/21 00:28:56;;;;;;;7.85;3.50;;;;;;;16.21;87.16;98980.13;6256279;23;20051;-95
2021/09/21 00:31:24;;;;;;;8.77;4.47;;;;;;;16.30;87.21;99000.28;6252551;23;20016;-95
2021/09/21 00:36:54;;;;;;;7.50;3.60;;;;;;;16.10;87.32;98979.75;5117927;27;20911;-94
2021/09/21 00:39:21;;;;;;;8.55;3.92;;;;;;;16.21;87.41;98998.91;5115950;28;20047;-96
2021/09/21 00:41:49;;;;;;;9.20;3.65;;;;;;;16.08;87.28;98978.09;5116125;28;20054;-96
2021/09/21 00:44:19;;;;;;;6.93;3.88;;;;;;;15.97;87.80;98973.22;5119423;28;20056;-95
2021/09/21 00:46:45;;;;;;;10.50;3.60;;;;;;;15.89;87.99;98978.06;5118712;28;20051;-95
2021/09/21 00:49:11;;;;;;;6.72;3.58;;;;;;;15.85;87.99;98971.94;5121690;28;20039;-95
2021/09/21 00:51:37;;;;;;;6.53;3.40;;;;;;;15.88;87.51;98973.63;5120434;28;20493;-96
2021/09/21 00:54:06;;;;;;;8.52;3.83;;;;;;;16.01;87.03;98975.69;5117201;28;20131;-95
2021/09/21 00:56:32;;;;;;;9.50;3.60;;;;;;;16.10;87.25;98995.84;5117358;28;20497;-96
2021/09/21 00:58:58;;;;;;;10.20;3.92;;;;;;;16.03;87.66;98989.03;5113505;28;20032;-95
2021/09/21 01:01:24;;;;;;;6.97;3.97;;;;;;;15.96;87.97;98982.19;5113485;28;20093;-95
2021/09/21 01:03:50;;;;;;;7.72;3.80;;;;;;;15.90;87.86;98978.00;5114235;28;20036;-96
2021/09/21 01:06:16;;;;;;;7.18;4.00;;;;;;;15.74;88.85;98969.78;5115143;28;20048;-95
2021/09/21 01:08:42;;;;;;;13.43;4.68;;;;;;;15.75;89.38;98984.91;5116623;28;20040;-95
2021/09/21 01:11:11;;;;;;;6.88;3.50;;;;;;;15.66;89.62;98982.63;5113293;28;20493;-94
2021/09/21 01:13:38;;;;;;;7.97;3.50;;;;;;;15.52;89.63;98968.94;5114711;28;20059;-95
2021/09/21 01:16:05;;;;;;;8.40;3.30;;;;;;;15.50;89.84;98978.84;5113578;28;20052;-95
2021/09/21 01:18:31;;;;;;;7.53;3.63;;;;;;;15.41;89.89;98974.75;5116250;28;20040;-95
2021/09/21 01:21:01;;;;;;;10.75;4.05;;;;;;;15.48;90.36;99004.84;5115678;28;20505;-96
2021/09/21 01:23:29;;;;;;;5.55;3.50;;;;;;;15.34;90.29;98984.00;5116911;28;20563;-95
2021/09/21 01:25:55;;;;;;;8.45;3.63;;;;;;;15.31;90.59;98982.34;5117426;28;20040;-94
2021/09/21 01:28:21;;;;;;;7.43;3.85;;;;;;;15.49;90.33;99006.59;5118853;28;20570;-95
2021/09/21 01:30:47;;;;;;;6.15;3.80;;;;;;;15.35;90.96;98978.59;5117186;28;20051;-95
2021/09/21 01:33:18;;;;;;;9.88;4.25;;;;;;;15.38;91.14;98993.66;5112473;28;20560;-95
2021/09/21 01:35:44;;;;;;;9.57;3.58;;;;;;;15.26;91.10;98973.63;5112156;28;20447;-94
2021/09/21 01:38:10;;;;;;;7.68;4.15;;;;;;;15.33;91.29;98999.22;5112776;28;20044;-95
2021/09/21 01:40:38;;;;;;;7.38;3.75;;;;;;;15.14;91.28;98977.69;5113625;28;20066;-95
2021/09/21 01:43:03;;;;;;;8.10;3.70;;;;;;;15.10;91.84;98967.19;5114646;28;20047;-94
2021/09/21 01:45:29;;;;;;;10.05;3.83;;;;;;;15.06;91.61;98981.63;5112388;28;20106;-93
2021/09/21 01:47:58;;;;;;;9.30;4.03;;;;;;;15.02;92.17;98977.34;5099640;28;20070;-94
2021/09/21 01:59:18;;;;;;;8.77;3.80;;;;;;;15.01;92.33;99003.25;5135868;27;20371;-96
2021/09/21 02:01:44;;;;;;;6.63;3.53;;;;;;;15.08;92.74;99014.59;5134664;27;20055;-96
2021/09/21 02:04:10;;;;;;;11.32;3.70;;;;;;;15.07;92.48;99024.44;5134647;27;20042;-95
2021/09/21 02:06:38;;;;;;;9.73;3.92;;;;;;;14.92;92.80;98995.59;5135096;27;20100;-95
2021/09/21 02:09:07;;;;;;;6.90;4.18;;;;;;;14.94;92.90;99007.09;5135746;27;20056;-95
2021/09/21 02:11:33;;;;;;;9.95;4.28;;;;;;;14.85;93.65;98989.63;5143365;27;20055;-95
2021/09/21 02:14:00;;;;;;;8.68;4.00;;;;;;;14.98;93.40;99006.94;5137682;27;20047;-96
2021/09/21 02:16:30;;;;;;;8.85;4.20;;;;;;;15.08;93.25;99011.91;5136416;27;20044;-96
2021/09/21 02:18:56;;;;;;;7.60;3.75;;;;;;;14.89;93.37;98985.88;5137726;27;20061;-95
2021/09/21 02:21:29;;;;;;;6.53;4.00;;;;;;;14.90;93.54;98994.81;5134214;27;20047;-96
2021/09/21 02:24:00;;;;;;;9.98;4.28;;;;;;;14.88;93.00;98991.31;5135449;27;20048;-96
2021/09/21 02:26:26;;;;;;;6.30;3.93;;;;;;;14.86;93.43;98994.03;5135579;27;20122;-95
2021/09/21 02:28:53;;;;;;;12.15;4.47;;;;;;;14.85;94.08;99004.81;5137938;27;20039;-95
2021/09/21 02:31:19;;;;;;;8.10;3.88;;;;;;;14.89;94.03;99004.63;5140902;27;20043;-96
2021/09/21 02:33:47;;;;;;;8.98;4.43;;;;;;;14.82;93.47;98996.91;5135317;27;20035;-95
2021/09/21 02:36:14;;;;;;;9.20;4.50;;;;;;;14.82;93.91;98994.25;5137513;27;20074;-95
2021/09/21 02:38:40;;;;;;;10.73;4.03;;;;;;;14.82;93.17;99008.50;5135555;27;20063;-95
2021/09/21 02:41:07;;;;;;;8.68;4.18;;;;;;;14.85;93.25;99018.19;5134828;27;20063;-95
2021/09/21 02:43:33;;;;;;;8.00;3.95;;;;;;;14.68;94.18;99010.84;5139168;28;20051;-95
2021/09/21 02:46:03;;;;;;;9.88;4.47;;;;;;;14.83;94.67;99041.47;5140678;27;20047;-95
2021/09/21 02:48:29;;;;;;;11.60;4.50;;;;;;;14.83;94.55;99053.06;5139517;27;20119;-94
2021/09/21 02:50:57;;;;;;;6.00;3.72;;;;;;;14.68;94.42;99018.88;5132977;27;20063;-96
2021/09/21 02:53:23;;;;;;;9.73;4.00;;;;;;;14.67;94.39;99025.16;5132910;27;20104;-95
2021/09/21 02:55:49;;;;;;;7.30;4.13;;;;;;;14.86;94.33;99060.13;5134579;27;20039;-95
2021/09/21 02:58:16;;;;;;;11.02;4.50;;;;;;;14.69;94.32;99023.31;5139120;27;20055;-94
2021/09/21 03:00:44;;;;;;;11.25;4.13;;;;;;;14.62;94.54;99024.50;5139278;27;20092;-95
2021/09/21 03:03:10;;;;;;;6.47;4.68;;;;;;;14.66;94.42;99034.13;5140905;27;20039;-96
2021/09/21 03:05:41;;;;;;;11.55;4.57;;;;;;;14.73;94.52;99057.06;5135940;27;20047;-94
2021/09/21 03:17:18;;;;;;;8.35;4.20;;;;;;;14.76;94.94;99062.28;5121738;27;20385;-95
2021/09/21 03:19:48;;;;;;;11.73;4.20;;;;;;;14.56;95.56;99030.94;5118886;28;20051;-93
2021/09/21 03:22:14;;;;;;;9.75;3.95;;;;;;;14.59;95.91;99028.13;5120894;28;20044;-94
2021/09/21 03:24:40;;;;;;;8.75;4.10;;;;;;;14.76;96.80;99028.34;5122994;28;20044;-95
2021/09/21 03:27:06;;;;;;;9.98;4.43;;;;;;;14.92;96.23;99025.94;5118540;28;20051;-95
2021/09/21 03:29:32;;;;;;;11.27;4.40;;;;;;;15.14;95.17;99043.81;5117131;28;20044;-95
2021/09/21 03:31:58;;;;;;;8.85;4.50;;;;;;;15.12;94.66;99038.50;5115578;28;20400;-95
2021/09/21 03:34:26;;;;;;;7.50;4.10;;;;;;;15.18;94.73;99038.25;5114827;28;20107;-95
2021/09/21 03:36:52;;;;;;;7.70;4.25;;;;;;;15.20;94.18;99032.81;5115080;28;20035;-95
2021/09/21 03:39:17;;;;;;;10.88;4.22;;;;;;;15.26;93.49;99051.31;5113430;28;20044;-95
2021/09/21 03:41:44;;;;;;;7.10;4.32;;;;;;;15.19;93.19;99049.84;5115471;28;20044;-95
2021/09/21 03:44:10;;;;;;;8.48;4.03;;;;;;;15.10;92.41;99044.84;5115071;28;20063;-95
2021/09/21 03:46:39;;;;;;;7.80;4.22;;;;;;;14.97;91.40;99049.84;5112980;28;20076;-95
2021/09/21 03:49:05;;;;;;;;;;;;;;;14.99;92.31;99078.31;5115517;28;20044;-94
2021/09/21 03:51:36;;;;;;;10.73;4.05;;;;;;;14.88;92.09;99083.22;5113690;28;19916;-94
2021/09/21 03:54:04;;;;;;;6.78;3.85;;;;;;;14.74;92.28;99064.13;5113772;28;20063;-95
2021/09/21 03:56:30;;;;;;;12.15;4.18;;;;;;;14.72;92.28;99080.25;5113502;28;20374;-95
2021/09/21 03:58:57;;;;;;;6.93;3.78;;;;;;;14.63;92.57;99085.97;5113002;28;20043;-94
2021/09/21 04:01:23;;;;;;;7.63;3.92;;;;;;;14.52;92.65;99064.06;5113402;28;20040;-94
2021/09/21 04:03:49;;;;;;;5.32;3.70;;;;;;;14.44;93.32;99066.16;5113598;28;20063;-95
2021/09/21 04:06:15;;;;;;;7.53;3.95;;;;;;;14.54;93.16;99083.63;5114439;28;20032;-94
2021/09/21 04:08:43;;;;;;;7.13;3.95;;;;;;;14.41;93.44;99077.84;5114744;28;20046;-95
2021/09/21 04:11:09;;;;;;;10.27;4.07;;;;;;;14.37;93.72;99081.56;5114807;28;20040;-94
2021/09/21 04:13:35;;;;;;;7.22;4.22;;;;;;;14.41;93.80;99085.03;5118128;28;20036;-95
2021/09/21 04:16:02;;;;;;;6.90;4.10;;;;;;;14.33;94.24;99090.66;5121001;28;20040;-95
2021/09/21 04:18:28;;;;;;;9.02;4.15;;;;;;;14.30;93.37;99072.91;5119736;28;20425;-95
2021/09/21 04:20:54;;;;;;;11.20;4.93;;;;;;;14.32;93.89;99071.06;5120649;28;20134;-94
2021/09/21 04:23:20;;;;;;;9.32;4.50;;;;;;;14.20;94.24;99089.34;5119864;28;20039;-96
2021/09/21 04:25:48;;;;;;;9.55;5.65;;;;;;;14.21;93.73;99091.13;5118645;28;20058;-95
2021/09/21 04:28:14;;;;;;;12.60;5.80;;;;;;;14.26;93.03;99086.47;5106207;28;20052;-94
2021/09/21 04:30:42;;;;;;;11.18;5.97;;;;;;;14.10;94.03;99088.84;5107306;28;20044;-93
2021/09/21 04:33:12;;;;;;;10.75;6.13;;;;;;;14.09;94.67;99112.00;5109483;28;20065;-95
2021/09/21 04:35:40;;;;;;;8.95;5.93;;;;;;;14.20;94.68;99114.28;5106028;28;20512;-94
2021/09/21 04:45:09;;;;;;;9.40;5.05;;;;;;;14.34;95.39;99101.28;5018134;28;20038;-95
2021/09/21 04:47:49;;;;;;;11.63;5.40;;;;;;;14.51;95.38;99108.69;5000116;28;20155;-94
2021/09/21 04:50:18;;;;;;;10.52;5.50;;;;;;;14.55;95.29;99106.78;5002261;28;20127;-94
2021/09/21 04:52:53;;;;;;;9.82;5.82;;;;;;;14.62;95.06;99099.44;5001599;28;20113;-94
2021/09/21 04:55:21;;;;;;;6.97;4.82;;;;;;;14.79;94.46;99119.25;5004205;28;20073;-95
2021/09/21 04:57:50;;;;;;;6.90;4.63;;;;;;;14.82;93.19;99120.94;5018157;28;20046;-94
2021/09/21 05:00:26;;;;;;;8.88;5.13;;;;;;;14.94;93.38;99122.25;5018017;28;20109;-95
2021/09/21 05:02:58;;;;;;;9.82;5.57;;;;;;;14.92;92.76;99113.41;5020033;28;20543;-95
2021/09/21 05:05:25;;;;;;;10.10;4.82;;;;;;;15.02;91.87;99127.31;5017614;28;20125;-96
2021/09/21 05:07:51;;;;;;;9.40;4.90;;;;;;;15.06;91.75;99135.16;5015914;28;20064;-96
2021/09/21 05:10:18;;;;;;;9.07;4.90;;;;;;;15.06;91.29;99136.97;5016390;28;20045;-95
2021/09/21 05:12:44;;;;;;;7.97;4.82;;;;;;;15.01;90.16;99137.16;5015960;28;20137;-95
2021/09/21 05:15:11;;;;;;;7.30;4.90;;;;;;;15.15;90.67;99158.03;5016360;28;20443;-94
2021/09/21 05:17:38;;;;;;;7.45;4.93;;;;;;;14.97;91.36;99149.78;5049818;28;20048;-94
2021/09/21 05:20:06;;;;;;;7.03;4.40;;;;;;;15.04;91.17;99144.19;5109629;28;20044;-95
2021/09/21 05:22:35;;;;;;;9.02;4.78;;;;;;;14.92;91.30;99126.78;5105585;28;20048;-96
2021/09/21 05:25:01;;;;;;;8.68;4.68;;;;;;;14.97;91.73;99135.53;5105417;28;20070;-94
2021/09/21 05:27:30;;;;;;;9.90;4.65;;;;;;;15.12;91.53;99158.16;5105961;28;20044;-94
2021/09/21 05:29:57;;;;;;;7.22;4.57;;;;;;;15.16;91.03;99165.16;5107916;28;20059;-96
2021/09/21 05:32:27;;;;;;;8.02;4.90;;;;;;;14.99;90.78;99126.50;5108137;28;20073;-94
2021/09/21 05:34:54;;;;;;;7.90;5.20;;;;;;;14.99;90.99;99133.69;5106976;28;20059;-95
2021/09/21 05:37:22;;;;;;;6.38;4.30;;;;;;;15.11;91.30;99149.25;5104754;28;20040;-93
2021/09/21 05:39:48;;;;;;;8.63;5.13;;;;;;;15.05;91.06;99137.91;5101000;28;20058;-95
2021/09/21 05:42:14;;;;;;;7.50;4.43;;;;;;;15.12;90.43;99139.44;5104363;28;20112;-95
2021/09/21 05:44:40;;;;;;;5.63;4.22;;;;;;;15.16;90.38;99141.06;5104295;28;20068;-95
2021/09/21 05:47:07;;;;;;;8.65;5.15;;;;;;;15.14;90.86;99138.41;5107624;28;20048;-95
2021/09/21 05:49:36;;;;;;;8.88;4.93;;;;;;;15.29;90.11;99161.06;5106738;28;20044;-96
2021/09/21 05:52:05;;;;;;;8.68;5.28;;;;;;;15.25;90.37;99135.31;5106020;28;20044;-96
2021/09/21 05:54:32;;;;;;;9.10;5.20;;;;;;;15.35;89.50;99146.50;5104718;28;20358;-94
2021/09/21 05:56:59;;;;;;;11.40;5.88;;;;;;;15.43;89.53;99165.84;5105032;28;20080;-96
2021/09/21 05:59:25;;;;;;;9.30;5.78;;;;;;;15.41;89.21;99151.63;5102655;28;20517;-96
2021/09/21 06:01:52;;;;;;;10.10;5.97;;;;;;;15.45;89.06;99147.91;5104988;28;20096;-95
2021/09/21 06:04:18;;;;;;;10.30;5.45;;;;;;;15.53;88.37;99147.59;5108081;28;20107;-95
2021/09/21 06:06:46;;;;;;;7.18;5.05;;;;;;;15.59;88.39;99147.31;5108584;28;20481;-95
2021/09/21 06:09:14;;;;;;;7.22;4.90;;;;;;;15.71;87.57;99164.72;5108807;28;20047;-95
2021/09/21 06:11:40;;;;;;;10.02;5.15;;;;;;;15.69;87.30;99146.00;5108709;28;20048;-95
2021/09/21 06:14:06;;;;;;;10.63;5.70;;;;;;;15.86;86.93;99169.47;5104638;28;20056;-95
2021/09/21 06:16:33;;;;;;;8.40;5.40;;;;;;;15.98;86.58;99155.53;5101838;28;20040;-95
2021/09/21 06:18:59;;;;;;;10.88;5.88;;;;;;;16.18;84.96;99156.50;5104805;28;20044;-94
2021/09/21 06:21:26;;;;;;;8.80;5.85;;;;;;;16.15;83.80;99164.66;5104883;28;20074;-95
2021/09/21 06:23:54;;;;;;;12.60;5.53;;;;;;;16.06;84.44;99173.97;5105830;28;20107;-95
2021/09/21 06:26:23;;;;;;;11.18;7.28;;;;;;;15.76;86.48;99174.31;5106889;28;20043;-94
2021/09/21 06:28:49;;;;;;;9.38;6.63;;;;;;;15.72;87.15;99178.09;5107546;28;20052;-95
2021/09/21 06:31:16;;;;;;;10.73;6.15;;;;;;;15.64;87.19;99166.78;5107407;28;20051;-95
2021/09/21 06:33:42;;;;;;;10.57;5.68;;;;;;;15.79;86.65;99173.34;5109462;28;20036;-94
2021/09/21 06:36:09;;;;;;;12.23;6.50;;;;;;;16.01;87.18;99205.50;5107343;28;20048;-95
2021/09/21 06:38:37;;;;;;;9.10;4.95;;;;;;;15.99;86.93;99172.50;5104809;28;20059;-96
2021/09/21 06:41:04;;;;;;;8.05;4.57;;;;;;;16.10;86.01;99197.06;5104186;28;20093;-95
2021/09/21 06:43:32;;;;;;;6.65;4.38;;;;;;;16.37;85.42;99191.41;5104930;28;20052;-96
2021/09/21 06:45:58;;;;;;;8.90;5.10;;;;;;;16.77;84.57;99216.50;5103294;28;20118;-96
2021/09/21 06:48:25;;;;;;;8.45;4.70;;;;;;;16.93;83.33;99200.59;5105832;28;20107;-96
2021/09/21 06:50:51;;;;;;;10.65;5.30;;;;;;;17.11;82.53;99189.00;5105352;28;20138;-95
2021/09/21 06:53:25;;;;;;;8.68;4.25;;;;;;;17.43;81.47;99200.88;5105943;28;20055;-95
2021/09/21 06:56:05;;;;;;;7.95;3.80;;;;;;;17.63;80.21;99229.50;5098971;28;20043;-94
2021/09/21 06:58:35;;;;;;;7.82;3.97;;;;;;;17.80;80.00;99207.16;5100519;28;20421;-95
2021/09/21 07:01:01;;;;;;;8.23;4.60;;;;;;;17.91;79.05;99193.19;5098566;28;20040;-94
2021/09/21 07:03:27;;;;;;;7.95;4.80;;;;;;;17.94;78.58;99205.63;5081189;28;20048;-94
2021/09/21 07:05:58;;;;;;;8.82;5.93;;;;;;;17.46;79.80;99197.19;5082249;28;20045;-95
2021/09/21 07:08:25;;;;;;;10.90;5.65;;;;;;;17.71;78.74;99218.34;5081969;28;20052;-93
2021/09/21 07:10:51;;;;;;;9.35;5.55;;;;;;;17.99;77.17;99215.19;5080341;28;20066;-95
2021/09/21 07:13:17;;;;;;;8.73;5.50;;;;;;;17.97;77.96;99211.72;5112387;28;20043;-94
2021/09/21 07:15:44;;;;;;;8.75;5.45;;;;;;;18.05;76.98;99193.38;5119993;28;20131;-94
2021/09/21 07:18:10;;;;;;;12.07;5.35;;;;;;;18.22;77.25;99199.72;5100864;28;20036;-95
2021/09/21 07:20:37;;;;;;;9.13;5.45;;;;;;;18.42;75.73;99220.22;5094412;28;20098;-93
2021/09/21 07:23:03;;;;;;;12.70;5.93;;;;;;;18.30;76.23;99212.78;5100958;28;20055;-95
2021/09/21 07:25:32;;;;;;;8.38;5.90;;;;;;;18.35;74.67;99203.53;5102228;28;20074;-96
2021/09/21 07:28:02;;;;;;;8.88;5.55;;;;;;;18.40;74.91;99224.81;5098527;28;20051;-95
2021/09/21 07:30:29;;;;;;;10.82;5.10;;;;;;;18.54;74.78;99224.09;5099035;28;20063;-95
2021/09/21 07:32:57;;;;;;;8.88;5.93;;;;;;;18.50;74.77;99226.09;5100831;28;20448;-94
2021/09/21 07:35:23;;;;;;;10.65;5.90;;;;;;;18.32;75.42;99216.25;5099607;28;20112;-93
2021/09/21 07:37:49;;;;;;;10.23;5.90;;;;;;;18.24;76.09;99243.59;5092965;28;20548;-94
2021/09/21 07:40:19;;;;;;;12.85;5.85;;;;;;;17.86;76.53;99220.31;5101615;28;20119;-94
2021/09/21 07:42:46;;;;;;;8.82;5.63;;;;;;;17.91;76.74;99211.16;5101734;28;20048;-94
2021/09/21 07:45:12;;;;;;;8.68;5.90;;;;;;;18.15;77.17;99220.69;5092610;28;20059;-95
2021/09/21 07:47:40;;;;;;;9.20;5.47;;;;;;;18.27;76.12;99229.97;5099904;28;20039;-94
2021/09/21 07:50:11;;;;;;;10.63;5.30;;;;;;;18.27;76.01;99219.19;5101823;28;20051;-95
2021/09/21 07:52:37;;;;;;;7.80;4.40;;;;;;;18.66;74.75;99237.78;5118704;28;20044;-94
2021/09/21 07:55:03;;;;;;;10.50;4.78;;;;;;;18.71;74.12;99215.97;5120952;28;20043;-94
2021/09/21 07:57:29;;;;;;;7.88;4.15;;;;;;;18.73;73.90;99213.22;5112935;28;20092;-95
2021/09/21 07:59:55;;;;;;;7.90;3.97;;;;;;;18.93;73.57;99212.16;5093779;28;20528;-94
2021/09/21 08:02:22;;;;;;;8.80;4.45;;;;;;;18.92;73.93;99216.69;5104297;28;20055;-94
2021/09/21 08:04:47;;;;;;;6.80;4.00;;;;;;;19.24;73.06;99211.38;5102597;28;20470;-94
2021/09/21 08:07:15;;;;;;;6.72;3.92;;;;;;;19.53;71.92;99234.00;5104425;28;20035;-95
2021/09/21 08:09:45;;;;;;;9.07;3.95;;;;;;;19.81;71.19;99218.97;5124836;28;20055;-95
2021/09/21 08:12:11;;;;;;;5.93;3.60;;;;;;;20.12;69.00;99228.84;5122579;28;20516;-95
2021/09/21 08:14:38;;;;;;;9.48;4.10;;;;;;;20.07;69.74;99228.25;5105272;28;20040;-96
2021/09/21 08:17:06;;;;;;;11.40;3.80;;;;;;;19.83;70.04;99217.91;5103389;28;20079;-96
2021/09/21 08:19:33;;;;;;;8.43;3.90;;;;;;;19.54;71.34;99232.16;5104322;28;20048;-95
2021/09/21 08:21:59;;;;;;;8.95;3.97;;;;;;;19.61;70.37;99238.97;5105076;28;20051;-95
2021/09/21 08:24:28;;;;;;;7.57;3.78;;;;;;;19.96;69.93;99242.38;5120944;28;20032;-96
2021/09/21 08:26:54;;;;;;;6.97;4.13;;;;;;;20.11;68.88;99227.97;5104798;28;20048;-95
2021/09/21 08:29:21;;;;;;;8.98;4.28;;;;;;;20.21;68.67;99230.13;5105107;28;20104;-96
2021/09/21 08:31:47;;;;;;;8.00;4.47;;;;;;;20.31;69.47;99242.13;5106990;28;20036;-94
2021/09/21 08:34:13;;;;;;;9.02;4.10;;;;;;;20.71;67.08;99255.97;5101456;28;20565;-94
2021/09/21 08:36:39;;;;;;;9.77;4.55;;;;;;;20.78;66.55;99230.31;5112563;28;20039;-95
2021/09/21 08:39:05;;;;;;;7.07;4.07;;;;;;;20.93;66.26;99242.00;5106378;28;20048;-94
2021/09/21 08:41:36;;;;;;;6.95;4.03;;;;;;;20.77;65.50;99257.41;5106635;28;20044;-94
2021/09/21 08:44:03;;;;;;;9.25;4.28;;;;;;;20.92;65.76;99280.81;5104255;28;20043;-94
2021/09/21 08:46:30;;;;;;;9.25;4.20;;;;;;;20.76;65.86;99274.63;5104171;28;20048;-95
2021/09/21 08:48:57;;;;;;;6.50;3.25;;;;;;;20.39;66.19;99252.50;5108364;28;20051;-95
2021/09/21 08:51:23;;;;;;;8.43;3.67;;;;;;;20.72;64.17;99257.72;5106753;28;20104;-96
2021/09/21 08:53:49;;;;;;;8.40;3.58;;;;;;;20.40;65.42;99252.38;5110319;28;20136;-95
2021/09/21 08:56:16;;;;;;;5.68;2.90;;;;;;;20.36;65.91;99250.81;5108757;28;20127;-95
2021/09/21 08:59:00;;;;;;;5.97;3.00;;;;;;;21.02;64.88;99273.88;5090976;28;20067;-95
2021/09/21 09:01:38;;;;;;;7.63;3.22;;;;;;;21.39;62.39;99235.53;5090068;28;20044;-95
2021/09/21 09:04:04;;;;;;;6.38;2.97;;;;;;;21.56;62.14;99238.06;5109249;28;20044;-95
2021/09/21 09:06:39;;;;;;;4.68;2.83;;;;;;;21.22;61.69;99237.47;5104127;28;20044;-96
2021/09/21 09:09:10;;;;;;;6.90;2.92;;;;;;;21.60;62.62;99265.75;5107331;28;20521;-94
2021/09/21 09:11:36;;;;;;;8.93;3.45;;;;;;;21.26;61.17;99246.25;5108395;28;20052;-94
2021/09/21 09:14:05;;;;;;;5.90;3.00;;;;;;;21.43;62.45;99269.56;5109984;28;20057;-96
2021/09/21 09:16:32;;;;;;;7.15;2.80;;;;;;;21.48;61.45;99251.19;5120644;28;20071;-96
2021/09/21 09:19:04;;;;;;;7.32;2.80;;;;;;;21.46;61.25;99259.41;5121029;28;20048;-95
2021/09/21 09:21:39;;;;;;;8.05;2.97;;;;;;;21.67;59.00;99250.88;5109606;28;20048;-95
2021/09/21 09:24:09;;;;;;;6.03;2.45;;;;;;;21.80;57.12;99251.81;5107063;28;20048;-94
2021/09/21 09:26:38;;;;;;;4.90;2.60;;;;;;;22.04;57.67;99260.16;5110761;28;20048;-95
2021/09/21 09:29:10;;;;;;;8.07;2.55;;;;;;;22.19;56.64;99260.97;5116874;28;20493;-96
2021/09/21 09:31:38;;;;;;;7.70;2.83;;;;;;;21.68;58.99;99269.72;5120842;28;20499;-95
2021/09/21 09:34:06;;;;;;;8.10;2.83;;;;;;;21.71;58.87;99256.00;5107280;28;20055;-95
2021/09/21 09:36:42;;;;;;;7.90;2.67;;;;;;;21.64;58.65;99264.59;5107061;28;20036;-93
2021/09/21 09:39:08;;;;;;;6.35;2.67;;;;;;;21.81;59.68;99268.91;5106878;28;20043;-96
2021/09/21 09:41:39;;;;;;;6.13;2.95;;;;;;;22.08;58.15;99255.41;5103063;28;20089;-94
2021/09/21 09:44:12;;;;;;;8.35;2.97;;;;;;;22.41;57.75;99262.25;5107811;28;20052;-94
2021/09/21 09:46:44;;;;;;;5.93;3.30;;;;;;;22.27;57.75;99258.66;5105286;28;20059;-94
2021/09/21 09:49:10;;;;;;;5.93;2.90;;;;;;;22.27;57.46;99255.94;5100241;28;20040;-95
2021/09/21 09:51:44;;;;;;;6.75;3.10;;;;;;;22.16;58.38;99255.75;5103474;28;20044;-96
2021/09/21 09:54:10;;;;;;;6.80;3.15;;;;;;;22.40;58.01;99271.34;5108741;28;20052;-94
2021/09/21 09:56:36;;;;;;;6.07;2.90;;;;;;;22.40;57.30;99265.94;5123519;28;20073;-95
2021/09/21 09:59:03;;;;;;;5.45;2.80;;;;;;;22.21;57.70;99256.31;5111054;28;20069;-95
2021/09/21 10:01:31;;;;;;;6.57;2.88;;;;;;;21.77;58.50;99284.47;5127758;28;20044;-94
2021/09/21 10:03:59;;;;;;;6.13;2.88;;;;;;;21.48;57.77;99280.97;5114984;28;20461;-96
2021/09/21 10:06:26;;;;;;;9.25;2.95;;;;;;;21.84;57.41;99271.41;5107345;28;20040;-94
2021/09/21 10:08:53;;;;;;;8.25;2.90;;;;;;;21.85;57.56;99295.69;5101778;28;20044;-93
2021/09/21 10:11:23;;;;;;;5.82;3.10;;;;;;;22.09;57.21;99270.69;5104272;28;20038;-96
2021/09/21 10:13:50;;;;;;;5.35;2.78;;;;;;;21.97;58.18;99269.66;5110053;28;20127;-95
2021/09/21 10:16:16;;;;;;;9.32;3.10;;;;;;;22.06;59.02;99298.84;5101933;28;20055;-95
2021/09/21 10:18:44;;;;;;;7.30;2.97;;;;;;;21.44;59.70;99301.06;5101145;28;20040;-95
2021/09/21 10:21:11;;;;;;;6.15;2.80;;;;;;;21.39;59.08;99271.56;5117409;28;20036;-96
2021/09/21 10:26:41;;;;;;;6.05;2.72;;;;;;;20.97;59.83;99296.75;5112371;27;20380;-95
2021/09/21 10:29:08;;;;;;;6.30;2.85;;;;;;;21.19;60.38;99315.22;5114122;28;20048;-94
2021/09/21 10:31:36;;;;;;;8.27;3.17;;;;;;;21.05;59.72;99295.31;5117167;28;20043;-95
2021/09/21 10:34:13;;;;;;;4.63;2.63;;;;;;;21.25;59.82;99317.53;5118612;28;20074;-96
2021/09/21 10:36:48;;;;;;;6.28;2.85;;;;;;;21.19;59.47;99304.38;5116245;28;20058;-94
2021/09/21 10:39:16;;;;;;;5.07;2.58;;;;;;;21.62;57.16;99289.09;5119284;28;20048;-95
2021/09/21 10:41:59;;;;;;;5.25;2.72;;;;;;;22.11;56.65;99295.81;5121299;28;20044;-95
2021/09/21 10:44:26;;;;;;;7.07;2.65;;;;;;;22.45;55.56;99288.19;5121184;28;20051;-96
2021/09/21 10:46:54;;;;;;;5.40;3.03;;;;;;;23.08;53.90;99317.28;5119117;28;20053;-96
2021/09/21 10:49:28;;;;;;;6.22;2.45;;;;;;;23.58;53.31;99315.53;5121018;28;20047;-95
2021/09/21 10:52:03;;;;;;;7.55;2.50;;;;;;;23.73;52.16;99321.69;5121862;28;20035;-96
2021/09/21 10:54:32;;;;;;;5.38;2.45;;;;;;;23.64;51.37;99302.47;5118580;28;20079;-95
2021/09/21 10:57:10;;;;;;;4.78;2.38;;;;;;;23.54;49.62;99303.16;5116919;28;20050;-95
2021/09/21 10:59:41;;;;;;;3.37;2.30;;;;;;;23.29;52.20;99305.88;5124627;28;20051;-95
2021/09/21 11:02:15;;;;;;;4.75;2.35;;;;;;;23.08;53.11;99295.59;5123335;28;20036;-96
2021/09/21 11:04:48;;;;;;;4.55;2.60;;;;;;;22.84;52.91;99316.25;5118900;28;20055;-96
2021/09/21 11:07:14;;;;;;;5.50;2.55;;;;;;;22.30;53.77;99312.63;5118830;28;20058;-96
2021/09/21 11:09:44;;;;;;;6.10;2.33;;;;;;;21.98;55.20;99333.69;5111207;28;20071;-93
2021/09/21 11:12:12;;;;;;;5.65;2.20;;;;;;;21.74;54.97;99307.22;5105657;28;20417;-95
2021/09/21 11:14:39;;;;;;;3.30;2.25;;;;;;;21.80;54.34;99305.09;5095820;28;20036;-95
2021/09/21 11:17:09;;;;;;;5.15;2.10;;;;;;;22.09;54.23;99323.00;5097304;28;20516;-94
2021/09/21 11:19:37;;;;;;;5.28;2.30;;;;;;;22.05;54.34;99294.38;5106194;28;20040;-96
2021/09/21 11:22:06;;;;;;;4.25;1.95;;;;;;;21.99;53.96;99310.16;5096759;28;20044;-96
2021/09/21 11:24:32;;;;;;;3.30;2.10;;;;;;;22.05;53.27;99302.50;5097099;28;20041;-94
2021/09/21 11:27:01;;;;;;;5.35;2.20;;;;;;;22.07;53.67;99299.69;5097348;28;20044;-96
2021/09/21 11:29:28;;;;;;;;;;;;;;;22.33;54.00;99330.50;5098291;28;20048;-95
2021/09/21 11:31:55;;;;;;;4.95;2.13;;;;;;;22.21;54.41;99296.09;5101357;28;19926;-96
2021/09/21 11:34:27;;;;;;;3.78;1.90;;;;;;;22.33;53.42;99295.28;5100803;28;20052;-95
2021/09/21 11:36:54;;;;;;;5.50;2.20;;;;;;;22.20;52.76;99289.78;5093755;28;20048;-96
2021/09/21 11:39:20;;;;;;;2.85;1.95;;;;;;;22.48;52.16;99317.78;5088055;28;20055;-96
2021/09/21 11:41:51;;;;;;;4.35;2.00;;;;;;;22.41;53.28;99294.78;5087360;28;20059;-95
2021/09/21 11:44:18;;;;;;;4.53;2.10;;;;;;;22.58;51.89;99280.97;5086426;28;20043;-96
2021/09/21 11:46:47;;;;;;;4.00;2.10;;;;;;;23.19;51.49;99324.69;5090362;28;20052;-96
2021/09/21 11:49:13;;;;;;;6.22;2.33;;;;;;;23.56;52.22;99287.63;5087566;28;20041;-94
2021/09/21 11:51:39;;;;;;;4.95;2.13;;;;;;;24.04;49.26;99310.47;5086751;28;20048;-96
2021/09/21 11:54:06;;;;;;;5.80;2.00;;;;;;;23.76;47.42;99304.34;5092935;28;20075;-96
2021/09/21 11:56:39;;;;;;;3.33;1.90;;;;;;;23.69;49.37;99289.47;5100112;28;20043;-95
2021/09/21 11:59:05;;;;;;;3.17;1.90;;;;;;;23.46;48.53;99291.97;5100647;28;20044;-94
2021/09/21 12:01:34;;;;;;;2.38;1.70;;;;;;;23.49;47.89;99282.78;5085401;28;20046;-95
2021/09/21 12:04:02;;;;;;;3.53;1.70;;;;;;;23.28;48.96;99320.44;5083123;28;20166;-93
2021/09/21 12:06:32;;;;;;;3.35;2.00;;;;;;;23.27;49.33;99303.31;5102941;28;20044;-94